Time;durP1;ratioP1;P1;durP2;ratioP2;P2;SDS_P1;SDS_P2;PMS_P1;PMS_P2;Temp;Humidity;BMP_temperature;BMP_pressure;BME280_temperature;BME280_humidity;BME280_pressure;Samples;Min_cycle;Max_cycle;Signal;HPM_P1;HPM_P2
2022/07/14 00:00:24;;;;;;;13.47;3.10;;;16.30;99.90;;;;;;5120822;27;20046;-86
2022/07/14 00:02:49;;;;;;;11.37;3.07;;;17.30;99.90;;;;;;5137945;27;20042;-85
2022/07/14 00:05:15;;;;;;;9.20;2.53;;;15.40;99.90;;;;;;5155949;27;20050;-85
2022/07/14 00:07:40;;;;;;;10.63;2.90;;;17.60;99.90;;;;;;5120754;27;20142;-86
2022/07/14 00:10:06;;;;;;;10.00;2.93;;;15.20;99.90;;;;;;5137295;27;20065;-86
2022/07/14 00:12:32;;;;;;;12.93;3.03;;;16.00;99.90;;;;;;5137458;27;20547;-85
2022/07/14 00:14:58;;;;;;;10.47;2.80;;;15.20;99.90;;;;;;5120625;27;20125;-86
2022/07/14 00:17:23;;;;;;;9.37;2.83;;;17.20;99.90;;;;;;5120604;27;20518;-85
2022/07/14 00:19:49;;;;;;;10.30;2.87;;;16.30;99.90;;;;;;5120475;27;20046;-85
2022/07/14 00:22:15;;;;;;;10.50;3.00;;;16.90;99.90;;;;;;5137544;27;20447;-86
2022/07/14 00:24:40;;;;;;;11.30;3.00;;;16.20;99.90;;;;;;5137330;27;20039;-85
2022/07/14 00:27:06;;;;;;;9.17;2.80;;;15.20;99.90;;;;;;5137511;27;20126;-86
2022/07/14 00:29:34;;;;;;;13.40;2.87;;;16.30;99.90;;;;;;5137354;27;20039;-86
2022/07/14 00:31:59;;;;;;;11.30;3.17;;;15.40;99.90;;;;;;5137346;27;20394;-86
2022/07/14 00:34:26;;;;;;;11.47;2.90;;;17.10;99.90;;;;;;5155315;27;20049;-86
2022/07/14 00:36:51;;;;;;;10.32;2.78;;;15.10;99.90;;;;;;5137851;27;20038;-85
2022/07/14 00:39:17;;;;;;;11.50;3.03;;;15.70;99.90;;;;;;5155355;27;20487;-86
2022/07/14 00:41:43;;;;;;;11.57;3.17;;;15.30;99.90;;;;;;5120048;27;20038;-85
2022/07/14 00:44:08;;;;;;;15.00;3.50;;;17.30;99.90;;;;;;5136956;27;20478;-85
2022/07/14 00:46:38;;;;;;;8.43;2.80;;;14.90;99.90;;;;;;5120031;27;20050;-87
2022/07/14 00:49:04;;;;;;;11.15;3.42;;;15.60;99.90;;;;;;5136709;27;20041;-87
2022/07/14 00:51:29;;;;;;;12.07;3.40;;;14.90;99.90;;;;;;5119826;27;20057;-86
2022/07/14 00:53:55;;;;;;;13.27;3.50;;;17.00;99.90;;;;;;5120257;27;20129;-87
2022/07/14 00:56:21;;;;;;;10.10;2.87;;;15.00;99.90;;;;;;5119843;27;20119;-87
2022/07/14 00:58:47;;;;;;;11.57;3.23;;;15.10;99.90;;;;;;5136908;27;20548;-87
2022/07/14 01:01:12;;;;;;;7.43;2.67;;;14.90;99.90;;;;;;5119992;27;20046;-86
2022/07/14 01:03:38;;;;;;;10.60;2.90;;;16.00;99.90;;;;;;5137442;27;20042;-86
2022/07/14 01:06:04;;;;;;;11.63;3.17;;;15.30;99.90;;;;;;5136890;27;20518;-86
2022/07/14 01:08:29;;;;;;;8.70;2.93;;;15.20;99.90;;;;;;5137674;27;20536;-87
2022/07/14 01:10:55;;;;;;;12.07;3.43;;;15.20;99.90;;;;;;5140736;27;20163;-86
2022/07/14 01:13:21;;;;;;;9.87;2.83;;;15.20;99.90;;;;;;5159278;27;20503;-86
2022/07/14 01:15:47;;;;;;;6.60;2.63;;;14.80;99.90;;;;;;5140918;27;20138;-86
2022/07/14 01:18:13;;;;;;;9.60;3.10;;;15.80;99.90;;;;;;5123928;27;20539;-87
2022/07/14 01:20:38;;;;;;;11.85;2.72;;;14.50;99.90;;;;;;5123889;27;20042;-86
2022/07/14 01:23:04;;;;;;;7.70;2.70;;;16.00;99.90;;;;;;5140795;27;20083;-86
2022/07/14 01:25:31;;;;;;;12.30;2.53;;;14.40;99.90;;;;;;5140695;27;20039;-87
2022/07/14 01:27:56;;;;;;;9.63;2.88;;;16.00;99.90;;;;;;5123706;27;20077;-85
2022/07/14 01:30:22;;;;;;;9.60;2.55;;;14.70;99.90;;;;;;5140661;27;20043;-86
2022/07/14 01:32:47;;;;;;;7.32;2.58;;;14.80;99.90;;;;;;5123890;27;20498;-85
2022/07/14 01:35:13;;;;;;;9.67;2.87;;;14.20;99.90;;;;;;5123590;27;20551;-85
2022/07/14 01:37:39;;;;;;;8.97;2.80;;;16.40;99.90;;;;;;5140616;27;20493;-85
2022/07/14 01:40:05;;;;;;;8.83;2.47;;;14.40;99.90;;;;;;5140635;27;20089;-85
2022/07/14 01:42:30;;;;;;;11.48;3.03;;;14.80;99.90;;;;;;5123298;27;20054;-85
2022/07/14 01:44:56;;;;;;;8.57;2.50;;;14.20;99.90;;;;;;5123485;27;20039;-85
2022/07/14 01:47:22;;;;;;;9.73;2.50;;;14.80;99.90;;;;;;5123349;27;20387;-86
2022/07/14 01:49:47;;;;;;;9.20;3.10;;;14.70;99.90;;;;;;5140040;27;20038;-85
2022/07/14 01:52:13;;;;;;;9.20;2.50;;;14.10;99.90;;;;;;5123236;27;20038;-84
2022/07/14 01:54:38;;;;;;;10.33;2.60;;;14.50;99.90;;;;;;5158363;27;20050;-85
2022/07/14 01:57:06;;;;;;;6.72;2.40;;;14.80;99.90;;;;;;5123207;27;20487;-85
2022/07/14 01:59:32;;;;;;;9.10;3.03;;;13.90;99.90;;;;;;5123027;27;20058;-85
2022/07/14 02:01:57;;;;;;;9.20;2.83;;;15.30;99.90;;;;;;5122978;27;20060;-86
2022/07/14 02:04:23;;;;;;;9.07;2.67;;;13.90;99.90;;;;;;5139773;27;20055;-84
2022/07/14 02:06:53;;;;;;;8.07;2.37;;;15.70;99.90;;;;;;5140033;27;20496;-86
2022/07/14 02:09:20;;;;;;;8.32;3.00;;;13.80;99.90;;;;;;5122586;27;20046;-85
2022/07/14 02:14:31;;;;;;;10.30;3.13;;;13.70;99.90;;;;;;5157976;27;20501;-85
2022/07/14 02:16:57;;;;;;;9.55;2.75;;;15.40;99.90;;;;;;5139667;27;20535;-85
2022/07/14 02:19:24;;;;;;;11.00;3.23;;;13.80;99.90;;;;;;5122688;27;20043;-85
2022/07/14 02:21:54;;;;;;;10.73;3.03;;;15.40;99.90;;;;;;5139615;27;20035;-85
2022/07/14 02:24:20;;;;;;;8.70;2.72;;;15.00;99.90;;;;;;5139700;27;20051;-86
2022/07/14 02:26:50;;;;;;;11.63;2.70;;;14.00;99.90;;;;;;5139599;27;20068;-85
2022/07/14 02:29:16;;;;;;;6.30;2.70;;;13.60;99.90;;;;;;5122672;27;20516;-86
2022/07/14 02:31:44;;;;;;;9.35;3.17;;;14.20;99.90;;;;;;5122163;27;20081;-86
2022/07/14 02:34:10;;;;;;;12.55;3.17;;;13.60;99.90;;;;;;5122484;27;20491;-84
2022/07/14 02:36:36;;;;;;;9.70;2.90;;;13.80;99.90;;;;;;5122437;27;20134;-86
2022/07/14 02:39:02;;;;;;;8.98;3.03;;;13.60;99.90;;;;;;5139569;27;20311;-85
2022/07/14 02:41:27;;;;;;;10.18;3.08;;;14.40;99.90;;;;;;5139299;27;20523;-85
2022/07/14 02:43:53;;;;;;;10.63;3.07;;;14.00;99.90;;;;;;5139308;27;20125;-86
2022/07/14 02:46:19;;;;;;;10.57;3.20;;;13.70;99.90;;;;;;5138844;27;20368;-85
2022/07/14 02:48:44;;;;;;;8.35;3.10;;;15.00;99.90;;;;;;5139145;27;20042;-85
2022/07/14 02:51:10;;;;;;;10.07;3.27;;;13.90;99.90;;;;;;5139046;27;20035;-85
2022/07/14 02:53:36;;;;;;;9.97;3.37;;;13.30;99.90;;;;;;5122120;27;20050;-85
2022/07/14 02:56:06;;;;;;;9.80;3.50;;;13.60;99.90;;;;;;5122268;27;20395;-86
2022/07/14 02:58:31;;;;;;;10.27;3.20;;;14.20;99.90;;;;;;5121930;27;20039;-86
2022/07/14 03:00:57;;;;;;;8.23;2.87;;;13.30;99.90;;;;;;5138798;27;20035;-85
2022/07/14 03:03:23;;;;;;;8.90;3.07;;;13.30;99.90;;;;;;5121915;27;20391;-86
2022/07/14 03:05:50;;;;;;;10.80;3.80;;;13.90;99.90;;;;;;5121559;27;20095;-86
2022/07/14 03:08:16;;;;;;;8.63;2.90;;;13.20;99.90;;;;;;5157171;27;20043;-85
2022/07/14 03:10:42;;;;;;;5.22;2.78;;;14.40;99.90;;;;;;5121292;27;20046;-86
2022/07/14 03:13:09;;;;;;;10.60;3.00;;;13.10;99.90;;;;;;5121750;27;20042;-86
2022/07/14 03:15:36;;;;;;;9.63;3.17;;;13.20;99.90;;;;;;5121655;27;20039;-85
2022/07/14 03:18:01;;;;;;;10.32;3.35;;;13.30;99.90;;;;;;5121759;27;20133;-85
2022/07/14 03:20:28;;;;;;;10.02;3.05;;;14.40;99.90;;;;;;5121702;27;20182;-86
2022/07/14 03:22:53;;;;;;;12.80;3.25;;;13.30;99.90;;;;;;5156878;27;20039;-86
2022/07/14 03:25:20;;;;;;;11.00;3.47;;;13.00;99.90;;;;;;5156880;27;20130;-85
2022/07/14 03:27:46;;;;;;;7.60;3.28;;;13.70;99.90;;;;;;5156871;27;20112;-86
2022/07/14 03:30:13;;;;;;;9.30;3.17;;;13.00;99.90;;;;;;5138092;27;20063;-86
2022/07/14 03:32:39;;;;;;;10.27;3.42;;;13.00;99.90;;;;;;5137647;27;20497;-87
2022/07/14 03:35:07;;;;;;;12.93;3.67;;;13.40;99.90;;;;;;5121368;27;20051;-86
2022/07/14 03:37:34;;;;;;;10.98;3.50;;;13.60;99.90;;;;;;5121360;27;20045;-86
2022/07/14 03:40:00;;;;;;;9.90;3.28;;;13.00;99.90;;;;;;5121411;27;20156;-86
2022/07/14 03:42:25;;;;;;;7.80;3.13;;;13.00;99.90;;;;;;5156509;27;20082;-86
2022/07/14 03:44:51;;;;;;;9.45;3.30;;;12.80;99.90;;;;;;5121159;27;20042;-86
2022/07/14 03:47:16;;;;;;;8.50;3.25;;;13.30;99.90;;;;;;5121784;27;20049;-85
2022/07/14 03:49:42;;;;;;;12.03;3.30;;;12.90;99.90;;;;;;5120580;27;20551;-85
2022/07/14 03:52:09;;;;;;;11.13;3.40;;;13.00;99.90;;;;;;5121092;27;20087;-85
2022/07/14 03:54:36;;;;;;;8.95;3.15;;;13.20;99.90;;;;;;5137970;27;20103;-84
2022/07/14 03:57:02;;;;;;;8.48;3.38;;;12.90;99.90;;;;;;5120966;27;20129;-84
2022/07/14 03:59:27;;;;;;;8.48;3.45;;;12.60;99.90;;;;;;5137712;27;20118;-84
2022/07/14 04:01:53;;;;;;;12.97;3.90;;;13.80;99.90;;;;;;5137728;27;20031;-86
2022/07/14 04:04:18;;;;;;;11.43;3.63;;;13.00;99.90;;;;;;5137686;27;20042;-85
2022/07/14 04:06:44;;;;;;;11.82;3.70;;;13.20;99.90;;;;;;5120827;27;20038;-85
2022/07/14 04:09:10;;;;;;;9.13;3.43;;;12.30;99.90;;;;;;5120803;27;20043;-86
2022/07/14 04:11:35;;;;;;;9.48;3.60;;;13.40;99.90;;;;;;5120130;27;20482;-86
2022/07/14 04:14:01;;;;;;;14.20;3.70;;;13.50;99.90;;;;;;5120485;27;20478;-86
2022/07/14 04:16:27;;;;;;;7.97;3.47;;;13.20;99.90;;;;;;5137432;27;20118;-85
2022/07/14 04:18:53;;;;;;;11.80;3.70;;;14.80;99.90;;;;;;5120665;27;20089;-85
2022/07/14 04:21:18;;;;;;;8.90;3.67;;;14.60;99.90;;;;;;5137364;27;20074;-85
2022/07/14 04:23:44;;;;;;;11.68;3.92;;;12.60;99.90;;;;;;5120831;27;20129;-85
2022/07/14 04:26:10;;;;;;;9.73;4.07;;;15.20;99.90;;;;;;5120368;27;20099;-85
2022/07/14 04:28:35;;;;;;;11.55;4.07;;;12.90;99.90;;;;;;5137442;27;20459;-85
2022/07/14 04:31:02;;;;;;;10.98;4.05;;;13.30;99.90;;;;;;5137236;27;20394;-86
2022/07/14 04:33:28;;;;;;;8.85;3.45;;;13.60;99.90;;;;;;5136483;27;20085;-86
2022/07/14 04:35:54;;;;;;;8.40;3.67;;;14.20;99.90;;;;;;5120194;27;20525;-84
2022/07/14 04:38:20;;;;;;;11.40;4.13;;;14.00;99.90;;;;;;5136955;27;20046;-85
2022/07/14 04:40:50;;;;;;;9.38;3.88;;;13.10;99.90;;;;;;5136958;27;20046;-86
2022/07/14 04:43:17;;;;;;;10.05;3.78;;;14.60;99.90;;;;;;5120014;27;20039;-86
2022/07/14 04:45:43;;;;;;;8.32;3.30;;;12.90;99.90;;;;;;5120400;27;20084;-87
2022/07/14 04:48:09;;;;;;;11.13;3.90;;;13.50;99.90;;;;;;5137231;27;20129;-88
2022/07/14 04:53:19;;;;;;;10.30;3.85;;;13.60;99.90;;;;;;5137253;27;20070;-85
2022/07/14 04:55:44;;;;;;;12.13;3.77;;;13.00;99.90;;;;;;5137179;27;20047;-83
2022/07/14 04:58:10;;;;;;;11.73;3.90;;;14.50;99.90;;;;;;5155264;27;20595;-85
2022/07/14 05:00:36;;;;;;;10.07;3.83;;;13.00;99.90;;;;;;5120490;27;20042;-85
2022/07/14 05:03:02;;;;;;;10.27;3.95;;;14.60;99.90;;;;;;5120049;27;20042;-85
2022/07/14 05:05:27;;;;;;;8.38;4.25;;;15.30;99.90;;;;;;5119945;27;20359;-84
2022/07/14 05:07:53;;;;;;;6.43;3.13;;;12.90;99.90;;;;;;5136927;27;20043;-84
2022/07/14 05:10:18;;;;;;;8.98;3.40;;;14.60;99.90;;;;;;5119409;27;20137;-83
2022/07/14 05:12:44;;;;;;;9.30;3.38;;;13.80;99.90;;;;;;5120188;27;20076;-87
2022/07/14 05:15:10;;;;;;;9.87;3.97;;;14.10;99.90;;;;;;5120072;27;20039;-84
2022/07/14 05:17:35;;;;;;;10.43;3.50;;;12.90;99.90;;;;;;5137412;27;20091;-86
2022/07/14 05:20:01;;;;;;;10.52;4.28;;;13.70;99.90;;;;;;5119882;27;20046;-82
2022/07/14 05:22:27;;;;;;;13.10;4.03;;;13.00;99.90;;;;;;5155143;27;20087;-85
2022/07/14 05:24:53;;;;;;;10.88;3.97;;;13.70;99.90;;;;;;5136891;27;20466;-85
2022/07/14 05:27:19;;;;;;;13.25;3.97;;;13.90;99.90;;;;;;5119399;27;20047;-85
2022/07/14 05:29:44;;;;;;;12.52;3.20;;;13.90;99.90;;;;;;5119684;27;20073;-85
2022/07/14 05:32:10;;;;;;;11.63;3.70;;;15.10;99.90;;;;;;5136634;27;20038;-85
2022/07/14 05:34:43;;;;;;;12.13;3.13;;;15.70;99.90;;;;;;5136815;27;20501;-85
2022/07/14 05:37:09;;;;;;;12.23;3.28;;;14.90;99.90;;;;;;5119546;27;20497;-85
2022/07/14 05:39:34;;;;;;;9.73;3.10;;;15.70;99.90;;;;;;5136686;27;20047;-85
2022/07/14 05:42:00;;;;;;;7.10;2.70;;;14.60;99.90;;;;;;5119586;27;20462;-85
2022/07/14 05:44:26;;;;;;;8.25;3.10;;;15.60;99.90;;;;;;5155148;27;20137;-87
2022/07/14 05:46:51;;;;;;;8.50;2.60;;;15.70;99.90;;;;;;5137114;27;20129;-87
2022/07/14 05:49:17;;;;;;;8.02;2.50;;;15.20;99.90;;;;;;5135277;27;20521;-85
2022/07/14 05:51:43;;;;;;;7.23;2.50;;;15.70;99.90;;;;;;5155397;27;20455;-87
2022/07/14 05:54:08;;;;;;;10.35;2.67;;;16.70;99.90;;;;;;5136608;27;20043;-87
2022/07/14 05:56:36;;;;;;;10.30;2.50;;;16.80;99.90;;;;;;5122968;27;20402;-92
2022/07/14 05:59:02;;;;;;;10.63;2.67;;;17.00;99.90;;;;;;5122747;27;20082;-84
2022/07/14 06:01:27;;;;;;;6.40;2.57;;;18.10;99.90;;;;;;5139135;27;20069;-85
2022/07/14 06:03:59;;;;;;;9.73;2.30;;;17.60;99.90;;;;;;5122341;27;20066;-86
2022/07/14 06:06:24;;;;;;;9.32;2.50;;;16.80;99.90;;;;;;5139528;27;20046;-87
2022/07/14 06:08:50;;;;;;;9.03;2.30;;;16.80;99.90;;;;;;5122975;27;20042;-85
2022/07/14 06:11:16;;;;;;;7.90;2.23;;;17.10;99.90;;;;;;5139864;27;20133;-85
2022/07/14 06:13:45;;;;;;;6.07;1.83;;;16.60;99.90;;;;;;5139634;27;20049;-84
2022/07/14 06:16:12;;;;;;;5.93;2.10;;;18.30;99.90;;;;;;5139922;27;20466;-84
2022/07/14 06:18:38;;;;;;;6.20;2.17;;;17.40;99.90;;;;;;5139894;27;20034;-83
2022/07/14 06:21:08;;;;;;;6.90;2.47;;;17.10;99.90;;;;;;5122721;27;20429;-82
2022/07/14 06:23:33;;;;;;;8.10;2.10;;;17.40;99.90;;;;;;5157929;27;20668;-81
2022/07/14 06:25:59;;;;;;;8.03;2.40;;;18.20;99.90;;;;;;5140081;27;20085;-83
2022/07/14 06:28:26;;;;;;;9.73;2.40;;;18.20;99.90;;;;;;5158004;27;20555;-83
2022/07/14 06:30:51;;;;;;;;;;;18.00;99.90;;;;;;5140132;27;20038;-83
2022/07/14 06:33:17;;;;;;;9.23;1.85;;;16.70;99.90;;;;;;5157964;27;20282;-83
2022/07/14 06:35:43;;;;;;;5.33;1.70;;;17.90;99.90;;;;;;5157855;27;20082;-84
2022/07/14 06:38:09;;;;;;;6.60;2.03;;;17.20;99.90;;;;;;5139396;27;20047;-79
2022/07/14 06:40:34;;;;;;;7.07;1.90;;;17.60;99.90;;;;;;5139378;27;20042;-79
2022/07/14 06:43:00;;;;;;;7.67;1.90;;;18.10;99.90;;;;;;5157744;27;20061;-79
2022/07/14 06:45:26;;;;;;;6.87;2.00;;;17.70;99.90;;;;;;5158000;27;20034;-79
2022/07/14 06:47:51;;;;;;;5.10;1.70;;;17.90;99.90;;;;;;5157656;27;20038;-80
2022/07/14 06:50:17;;;;;;;5.90;1.50;;;17.80;99.90;;;;;;5157543;27;20473;-79
2022/07/14 06:52:42;;;;;;;7.57;1.60;;;18.10;99.90;;;;;;5157219;27;20038;-79
2022/07/14 06:55:09;;;;;;;4.93;1.30;;;18.10;99.90;;;;;;5157368;27;20051;-79
2022/07/14 06:57:34;;;;;;;7.53;1.80;;;18.20;99.90;;;;;;5157636;27;20043;-80
2022/07/14 07:00:01;;;;;;;5.37;1.50;;;18.40;99.90;;;;;;5157380;27;20078;-79
2022/07/14 07:02:26;;;;;;;6.55;1.67;;;18.30;99.90;;;;;;5157602;27;20073;-79
2022/07/14 07:07:36;;;;;;;8.43;1.65;;;18.30;99.90;;;;;;5137915;27;20054;-78
2022/07/14 07:10:03;;;;;;;7.23;1.63;;;18.80;99.90;;;;;;5156926;27;20125;-81
2022/07/14 07:12:29;;;;;;;;;;;18.40;99.90;;;;;;5157546;27;20099;-82
2022/07/14 07:14:55;;;;;;;7.68;1.85;;;18.90;99.90;;;;;;5156878;27;19918;-79
2022/07/14 07:17:21;;;;;;;9.87;1.83;;;18.90;99.90;;;;;;5157052;27;20047;-81
2022/07/14 07:19:46;;;;;;;5.40;1.30;;;19.20;99.90;;;;;;5156916;27;20057;-78
2022/07/14 07:22:12;;;;;;;4.20;1.37;;;18.20;99.90;;;;;;5156849;27;20130;-80
2022/07/14 07:24:37;;;;;;;7.50;1.60;;;18.80;99.90;;;;;;5156909;27;20095;-79
2022/07/14 07:27:03;;;;;;;6.43;1.80;;;19.20;99.90;;;;;;5156892;27;20045;-80
2022/07/14 07:29:29;;;;;;;8.10;2.07;;;19.00;99.90;;;;;;5156819;27;20067;-80
2022/07/14 07:31:54;;;;;;;5.47;1.63;;;19.00;99.90;;;;;;5157025;27;20038;-81
2022/07/14 07:34:20;;;;;;;8.70;1.60;;;18.90;99.90;;;;;;5156554;27;20505;-81
2022/07/14 07:36:45;;;;;;;5.77;1.50;;;18.70;99.90;;;;;;5156567;27;20428;-81
2022/07/14 07:39:11;;;;;;;8.30;1.97;;;18.90;99.90;;;;;;5156583;27;20092;-78
2022/07/14 07:41:37;;;;;;;4.87;1.50;;;18.50;99.90;;;;;;5156529;27;20031;-80
2022/07/14 07:44:03;;;;;;;9.57;1.55;;;18.70;99.90;;;;;;5156575;27;20121;-80
2022/07/14 07:46:29;;;;;;;6.47;1.20;;;18.60;99.90;;;;;;5156607;27;20070;-80
2022/07/14 07:48:54;;;;;;;5.30;1.33;;;18.50;99.90;;;;;;5156454;27;20483;-79
2022/07/14 07:51:20;;;;;;;5.57;1.37;;;18.60;99.90;;;;;;5156277;27;20035;-80
2022/07/14 07:53:45;;;;;;;5.97;1.40;;;18.30;99.90;;;;;;5157003;27;20098;-80
2022/07/14 07:56:11;;;;;;;6.23;1.27;;;18.50;99.90;;;;;;5156286;27;20493;-80
2022/07/14 07:58:36;;;;;;;6.07;1.20;;;18.60;99.90;;;;;;5138088;27;20484;-81
2022/07/14 08:01:03;;;;;;;5.43;1.37;;;18.30;99.90;;;;;;5156277;27;20492;-81
2022/07/14 08:03:29;;;;;;;5.93;1.17;;;19.00;99.90;;;;;;5121033;27;20367;-81
2022/07/14 08:05:55;;;;;;;5.67;1.20;;;19.20;99.90;;;;;;5155996;27;20098;-81
2022/07/14 08:08:21;;;;;;;4.93;1.30;;;19.40;99.90;;;;;;5137827;27;20372;-80
2022/07/14 08:10:47;;;;;;;4.27;0.90;;;19.80;99.90;;;;;;5137658;27;20142;-81
2022/07/14 08:13:12;;;;;;;4.97;1.00;;;19.80;99.90;;;;;;5156003;27;20045;-79
2022/07/14 08:15:38;;;;;;;4.50;1.00;;;19.80;99.90;;;;;;5155700;27;20035;-79
2022/07/14 08:18:04;;;;;;;2.80;0.90;;;20.00;99.90;;;;;;5155640;27;20050;-81
2022/07/14 08:20:30;;;;;;;3.45;1.25;;;19.30;99.90;;;;;;5120592;27;20130;-83
2022/07/14 08:22:57;;;;;;;3.70;1.20;;;19.10;99.90;;;;;;5120341;27;20049;-80
2022/07/14 08:25:22;;;;;;;5.35;1.08;;;18.60;99.90;;;;;;5155776;27;20038;-82
2022/07/14 08:27:48;;;;;;;5.27;1.10;;;19.10;99.90;;;;;;5155787;27;20042;-81
2022/07/14 08:30:14;;;;;;;6.27;1.20;;;19.00;99.90;;;;;;5155653;27;20131;-80
2022/07/14 08:32:42;;;;;;;5.87;1.30;;;18.90;99.90;;;;;;5155776;27;20047;-81
2022/07/14 08:35:10;;;;;;;5.35;1.42;;;19.60;99.90;;;;;;5137125;27;20405;-81
2022/07/14 08:37:36;;;;;;;5.63;0.98;;;20.00;99.90;;;;;;5155495;27;20051;-82
2022/07/14 08:40:04;;;;;;;5.03;1.50;;;19.70;99.90;;;;;;5155523;27;20042;-82
2022/07/14 08:42:31;;;;;;;2.95;1.00;;;19.90;99.90;;;;;;5137155;27;20486;-82
2022/07/14 08:44:57;;;;;;;4.07;1.10;;;20.60;99.90;;;;;;5155225;27;20498;-81
2022/07/14 08:47:23;;;;;;;4.50;1.10;;;20.20;99.90;;;;;;5155518;27;20089;-81
2022/07/14 08:49:48;;;;;;;4.70;1.30;;;20.40;99.90;;;;;;5137250;27;20039;-82
2022/07/14 08:52:17;;;;;;;4.07;0.93;;;20.40;99.90;;;;;;5155131;27;20099;-82
2022/07/14 08:54:45;;;;;;;3.60;0.90;;;21.10;99.90;;;;;;5137314;27;20047;-85
2022/07/14 08:57:11;;;;;;;3.72;1.20;;;21.10;99.90;;;;;;5136920;27;20051;-82
2022/07/14 08:59:38;;;;;;;3.93;0.97;;;21.30;99.90;;;;;;5137152;27;20485;-83
2022/07/14 09:02:03;;;;;;;;;;;21.40;99.90;;;;;;5137311;27;20085;-84
2022/07/14 09:04:29;;;;;;;4.88;1.17;;;21.60;99.90;;;;;;5119989;27;19966;-83
2022/07/14 09:06:55;;;;;;;6.60;1.00;;;21.60;99.90;;;;;;5119881;27;20474;-84
2022/07/14 09:09:23;;;;;;;3.13;1.10;;;21.60;99.90;;;;;;5137267;27;20050;-83
2022/07/14 09:11:53;;;;;;;4.50;1.00;;;21.10;99.90;;;;;;5154711;27;20491;-84
2022/07/14 09:14:20;;;;;;;2.92;0.80;;;21.50;99.90;;;;;;5155196;27;20510;-82
2022/07/14 09:16:46;;;;;;;4.80;0.90;;;21.60;98.90;;;;;;5119646;27;20513;-83
2022/07/14 09:19:13;;;;;;;3.37;0.77;;;21.50;98.00;;;;;;5119709;27;20050;-83
2022/07/14 09:21:43;;;;;;;1.63;0.70;;;21.70;98.60;;;;;;5136697;27;20070;-82
2022/07/14 09:24:10;;;;;;;3.22;1.45;;;21.30;98.60;;;;;;5155454;27;20080;-83
2022/07/14 09:26:45;;;;;;;1.63;0.70;;;22.00;98.40;;;;;;5155112;27;20038;-83
2022/07/14 09:29:24;;;;;;;4.38;0.80;;;22.10;98.60;;;;;;5155493;27;20118;-82
2022/07/14 09:31:50;;;;;;;3.47;1.05;;;22.30;98.20;;;;;;5159055;27;20078;-83
2022/07/14 09:34:32;;;;;;;4.00;0.90;;;22.50;98.10;;;;;;5141063;27;20442;-82
2022/07/14 09:37:13;;;;;;;5.05;1.15;;;22.30;98.70;;;;;;5140922;27;20100;-82
2022/07/14 09:39:54;;;;;;;4.50;1.17;;;22.30;97.60;;;;;;5140679;27;20039;-83
2022/07/14 09:42:20;;;;;;;4.35;0.70;;;22.60;98.80;;;;;;5158563;27;20041;-82
2022/07/14 09:44:46;;;;;;;4.27;0.90;;;22.40;98.80;;;;;;5140698;27;20043;-81
2022/07/14 09:47:11;;;;;;;4.53;0.90;;;22.50;99.20;;;;;;5140703;27;20389;-80
2022/07/14 09:49:39;;;;;;;4.23;0.80;;;22.50;98.80;;;;;;5158834;27;20046;-82
2022/07/14 09:52:06;;;;;;;5.25;1.10;;;22.20;98.00;;;;;;5122684;27;20034;-84
2022/07/14 09:54:40;;;;;;;2.80;1.00;;;22.70;98.50;;;;;;5123297;27;20042;-81
2022/07/14 09:57:19;;;;;;;2.90;1.10;;;22.20;97.90;;;;;;5158513;27;20107;-82
2022/07/14 10:00:10;;;;;;;5.60;1.38;;;22.20;97.70;;;;;;5140533;27;20047;-82
2022/07/14 10:02:40;;;;;;;3.08;0.93;;;21.90;98.80;;;;;;5158720;27;20086;-83
2022/07/14 10:05:07;;;;;;;4.32;0.93;;;21.80;99.20;;;;;;5158492;27;20118;-83
2022/07/14 10:07:38;;;;;;;3.10;0.80;;;22.10;99.00;;;;;;5140544;27;20375;-82
2022/07/14 10:10:09;;;;;;;2.95;0.90;;;21.80;97.90;;;;;;5158506;27;20092;-82
2022/07/14 10:12:39;;;;;;;2.67;0.90;;;22.10;98.00;;;;;;5140625;27;20042;-82
2022/07/14 10:15:10;;;;;;;2.25;0.90;;;22.90;98.80;;;;;;5139982;27;20501;-82
2022/07/14 10:17:37;;;;;;;2.90;0.90;;;22.10;97.60;;;;;;5158316;27;20039;-83
2022/07/14 10:20:11;;;;;;;2.97;0.90;;;22.10;97.60;;;;;;5123297;27;20078;-84
2022/07/14 10:22:37;;;;;;;2.45;0.77;;;22.00;97.00;;;;;;5140103;27;20078;-82
2022/07/14 10:25:05;;;;;;;4.53;0.82;;;22.00;98.20;;;;;;5158145;27;20062;-77
2022/07/14 10:27:31;;;;;;;4.03;0.88;;;22.00;98.10;;;;;;5158075;27;20081;-78
2022/07/14 10:29:57;;;;;;;2.95;1.00;;;22.00;97.90;;;;;;5158058;27;20043;-77
2022/07/14 10:32:39;;;;;;;3.45;0.93;;;21.80;98.70;;;;;;5139537;27;20072;-76
2022/07/14 10:35:41;;;;;;;3.38;0.80;;;21.80;98.20;;;;;;5158342;27;20043;-76
2022/07/14 10:38:20;;;;;;;4.70;1.10;;;21.70;98.80;;;;;;5157876;27;20043;-75
2022/07/14 10:41:05;;;;;;;5.32;0.90;;;21.70;99.20;;;;;;5157425;27;20482;-76
2022/07/14 10:44:09;;;;;;;4.47;1.00;;;21.70;99.10;;;;;;5158089;27;20121;-79
2022/07/14 10:46:40;;;;;;;2.05;0.80;;;21.70;97.90;;;;;;5142007;27;20086;-78
2022/07/14 10:49:07;;;;;;;2.03;0.80;;;21.70;99.40;;;;;;5157631;27;20050;-78
2022/07/14 10:51:42;;;;;;;2.78;0.80;;;21.40;98.80;;;;;;5157557;27;20082;-77
2022/07/14 10:54:10;;;;;;;3.50;1.00;;;21.60;98.30;;;;;;5157557;27;20042;-78
2022/07/14 10:56:41;;;;;;;2.75;0.90;;;21.80;98.20;;;;;;5157504;27;20041;-78
2022/07/14 10:59:33;;;;;;;3.70;0.88;;;22.10;98.50;;;;;;5157335;27;20375;-79
2022/07/14 11:02:14;;;;;;;3.30;0.85;;;21.70;97.70;;;;;;5153439;27;20486;-77
2022/07/14 11:08:00;;;;;;;2.25;0.77;;;21.90;98.10;;;;;;5157442;27;20095;-78
2022/07/14 11:10:26;;;;;;;5.25;1.00;;;21.90;97.60;;;;;;5156988;27;20055;-77
2022/07/14 11:13:03;;;;;;;3.80;0.90;;;21.70;98.00;;;;;;5157428;27;20053;-77
2022/07/14 11:15:41;;;;;;;3.90;0.90;;;22.00;98.20;;;;;;5157301;27;20042;-79
2022/07/14 11:18:42;;;;;;;2.00;0.70;;;22.10;97.50;;;;;;5156755;27;20043;-77
2022/07/14 11:21:19;;;;;;;3.92;0.80;;;22.20;97.80;;;;;;5156859;27;20494;-77
2022/07/14 11:23:50;;;;;;;4.28;0.80;;;22.00;97.60;;;;;;5157083;27;20038;-77
2022/07/14 11:26:40;;;;;;;3.20;0.88;;;22.20;98.20;;;;;;5157050;27;20129;-79
2022/07/14 11:29:08;;;;;;;3.45;0.80;;;22.20;97.60;;;;;;5156774;27;20133;-81
2022/07/14 11:31:42;;;;;;;2.50;0.80;;;22.50;98.00;;;;;;5156730;27;20042;-79
2022/07/14 11:37:15;;;;;;;5.50;1.05;;;22.00;98.00;;;;;;5156575;27;20133;-78
2022/07/14 11:39:42;;;;;;;2.78;1.00;;;22.10;98.20;;;;;;5156619;27;20080;-78
2022/07/14 11:42:08;;;;;;;2.15;0.75;;;22.20;98.30;;;;;;5156763;27;20474;-75
2022/07/14 11:44:36;;;;;;;4.77;0.93;;;22.00;98.50;;;;;;5156379;27;20053;-76
2022/07/14 11:47:07;;;;;;;3.33;1.00;;;22.20;98.40;;;;;;5156678;27;20126;-76
2022/07/14 11:49:35;;;;;;;3.08;0.80;;;22.00;97.30;;;;;;5156349;27;20043;-77
2022/07/14 11:52:02;;;;;;;3.03;0.70;;;21.70;97.40;;;;;;5155610;27;20083;-76
2022/07/14 11:54:28;;;;;;;2.50;0.80;;;22.30;97.90;;;;;;5156327;27;20042;-77
2022/07/14 11:57:06;;;;;;;2.77;0.73;;;22.10;97.50;;;;;;5156285;27;20145;-77
2022/07/14 11:59:35;;;;;;;4.30;0.90;;;22.20;98.00;;;;;;5156006;27;20482;-77
2022/07/14 12:02:15;;;;;;;4.47;0.90;;;22.30;97.40;;;;;;5156115;27;20482;-76
2022/07/14 12:04:55;;;;;;;7.35;1.00;;;22.30;97.10;;;;;;5156695;27;20049;-76
2022/07/14 12:07:24;;;;;;;3.53;0.88;;;22.60;97.30;;;;;;5156105;27;20090;-77
2022/07/14 12:09:51;;;;;;;2.35;0.80;;;22.40;97.30;;;;;;5156079;27;20047;-77
2022/07/14 12:12:19;;;;;;;3.13;0.80;;;22.40;97.60;;;;;;5155446;27;20065;-77
2022/07/14 12:14:50;;;;;;;3.58;0.70;;;22.30;97.60;;;;;;5155598;27;20082;-77
2022/07/14 12:17:17;;;;;;;2.03;0.70;;;22.40;97.20;;;;;;5156469;27;20102;-79
2022/07/14 12:19:44;;;;;;;3.50;0.80;;;22.40;97.30;;;;;;5155827;27;20038;-77
2022/07/14 12:22:10;;;;;;;2.33;0.80;;;22.30;97.30;;;;;;5155837;27;20038;-76
2022/07/14 12:24:36;;;;;;;3.92;0.90;;;22.40;97.90;;;;;;5155856;27;20065;-77
2022/07/14 12:27:08;;;;;;;5.17;0.80;;;22.40;98.80;;;;;;5155817;27;20466;-77
2022/07/14 12:29:35;;;;;;;3.53;1.05;;;22.30;97.70;;;;;;5155723;27;20035;-78
2022/07/14 12:32:01;;;;;;;3.90;0.80;;;22.60;97.40;;;;;;5155659;27;20398;-75
2022/07/14 12:34:28;;;;;;;2.00;0.80;;;22.50;98.10;;;;;;5155661;27;20045;-77
2022/07/14 12:36:59;;;;;;;3.85;0.85;;;22.60;97.70;;;;;;5155864;27;20074;-76
2022/07/14 12:39:25;;;;;;;1.65;0.70;;;22.70;97.10;;;;;;5155746;27;20398;-76
2022/07/14 12:41:51;;;;;;;3.35;0.90;;;23.00;97.00;;;;;;5155695;27;20045;-77
2022/07/14 12:44:17;;;;;;;2.17;0.80;;;23.30;96.70;;;;;;5155517;27;20109;-76
2022/07/14 12:46:43;;;;;;;2.03;0.60;;;23.30;97.00;;;;;;5137307;27;20038;-77
2022/07/14 12:49:09;;;;;;;2.80;0.80;;;23.50;96.80;;;;;;5155507;27;20488;-77
2022/07/14 12:51:40;;;;;;;5.50;0.88;;;23.70;96.30;;;;;;5155332;27;20435;-77
2022/07/14 12:54:11;;;;;;;4.22;0.88;;;23.90;95.30;;;;;;5155464;27;20046;-76
2022/07/14 12:56:43;;;;;;;2.95;0.90;;;23.90;95.10;;;;;;5155322;27;20047;-77
2022/07/14 12:59:18;;;;;;;2.90;0.88;;;23.80;95.30;;;;;;5155397;27;20046;-77
2022/07/14 13:01:45;;;;;;;2.55;0.70;;;24.20;95.40;;;;;;5155338;27;20049;-78